createdAt,value
2023-01-19T00:00:34.932Z,83.44
2023-01-19T00:01:37.758Z,83.55
2023-01-19T00:02:40.462Z,83.21
2023-01-19T00:03:43.475Z,83.27
2023-01-19T00:04:46.148Z,83.07
2023-01-19T00:05:48.952Z,82.96
2023-01-19T00:06:51.691Z,82.77
2023-01-19T00:07:54.333Z,83.02
2023-01-19T00:08:57.047Z,82.85
2023-01-19T00:10:00.326Z,83.00
2023-01-19T00:11:03.501Z,83.19
2023-01-19T00:12:06.739Z,83.03
2023-01-19T00:13:09.465Z,83.27
2023-01-19T00:14:12.121Z,83.23
2023-01-19T00:15:15.029Z,82.92
2023-01-19T00:16:19.398Z,82.80
2023-01-19T00:17:22.099Z,82.53
2023-01-19T00:18:24.806Z,82.56
2023-01-19T00:19:27.436Z,82.63
2023-01-19T00:20:33.066Z,82.82
2023-01-19T00:21:35.754Z,82.93
2023-01-19T00:22:38.388Z,82.36
2023-01-19T00:23:41.110Z,82.18
2023-01-19T00:24:43.847Z,82.19
2023-01-19T00:25:47.208Z,82.20
2023-01-19T00:26:49.995Z,81.91
2023-01-19T00:27:52.615Z,81.72
2023-01-19T00:28:55.225Z,81.77
2023-01-19T00:29:57.828Z,81.45
2023-01-19T00:31:00.706Z,81.76
2023-01-19T00:32:06.360Z,81.75
2023-01-19T00:33:09.816Z,81.67
2023-01-19T00:34:12.533Z,81.52
2023-01-19T00:35:15.272Z,81.44
2023-01-19T00:36:17.942Z,81.64
2023-01-19T00:37:20.674Z,81.58
2023-01-19T00:38:23.453Z,81.21
2023-01-19T00:39:26.122Z,81.51
2023-01-19T00:40:29.203Z,81.67
2023-01-19T00:41:50.378Z,81.57
2023-01-19T00:42:54.423Z,81.77
2023-01-19T00:43:57.197Z,81.83
2023-01-19T00:44:59.920Z,81.80
2023-01-19T00:46:02.700Z,81.64
2023-01-19T00:47:06.795Z,81.92
2023-01-19T00:48:09.872Z,81.92
2023-01-19T00:49:12.533Z,81.80
2023-01-19T00:50:17.889Z,81.89
2023-01-19T00:51:20.542Z,81.98
2023-01-19T00:52:23.173Z,82.13
2023-01-19T00:53:33.763Z,82.14
2023-01-19T00:54:56.373Z,82.15
2023-01-19T00:55:59.367Z,82.03
2023-01-19T00:57:02.519Z,82.15
2023-01-19T00:58:05.562Z,82.11
2023-01-19T00:59:08.206Z,82.21
2023-01-19T01:00:16.656Z,81.92
2023-01-19T01:01:19.399Z,81.98
2023-01-19T01:02:22.313Z,82.09
2023-01-19T01:03:28.880Z,81.72
2023-01-19T01:04:31.680Z,82.03
2023-01-19T01:05:34.438Z,82.15
2023-01-19T01:06:37.087Z,82.06
2023-01-19T01:07:45.665Z,81.93
2023-01-19T01:08:48.295Z,81.84
2023-01-19T01:09:52.172Z,81.74
2023-01-19T01:10:55.934Z,81.98
2023-01-19T01:11:58.630Z,81.91
2023-01-19T01:13:20.325Z,81.93
2023-01-19T01:14:25.186Z,81.92
2023-01-19T01:15:28.820Z,82.04
2023-01-19T01:16:31.505Z,81.98
2023-01-19T01:17:34.560Z,81.88
2023-01-19T01:18:37.201Z,81.66
2023-01-19T01:19:39.865Z,81.60
2023-01-19T01:20:42.561Z,81.68
2023-01-19T01:21:45.244Z,81.65
2023-01-19T01:22:52.289Z,81.60
2023-01-19T01:23:54.973Z,81.57
2023-01-19T01:24:57.747Z,81.55
2023-01-19T01:26:00.751Z,81.26
2023-01-19T01:27:03.580Z,81.19
2023-01-19T01:28:09.745Z,81.29
2023-01-19T01:29:12.435Z,80.96
2023-01-19T01:30:16.433Z,81.11
2023-01-19T01:31:19.114Z,81.09
2023-01-19T01:32:21.819Z,80.95
2023-01-19T01:33:41.113Z,81.38
2023-01-19T01:34:44.962Z,81.23
2023-01-19T01:35:48.284Z,81.34
2023-01-19T01:36:50.928Z,81.48
2023-01-19T01:37:53.756Z,80.89
2023-01-19T01:38:56.403Z,81.15
2023-01-19T01:39:59.099Z,81.15
2023-01-19T01:41:01.783Z,81.25
2023-01-19T01:42:14.656Z,81.39
2023-01-19T01:43:19.365Z,81.12
2023-01-19T01:44:52.117Z,80.96
2023-01-19T01:45:56.033Z,81.12
2023-01-19T01:46:59.546Z,81.09
2023-01-19T01:48:28.881Z,80.78
2023-01-19T01:49:31.819Z,80.83
2023-01-19T01:50:38.131Z,80.91
2023-01-19T01:51:49.252Z,80.93
2023-01-19T01:53:08.214Z,80.48
2023-01-19T01:54:26.248Z,80.43
2023-01-19T01:55:30.102Z,80.37
2023-01-19T01:56:47.853Z,80.57
2023-01-19T01:57:58.517Z,80.65
2023-01-19T01:59:06.125Z,80.45
2023-01-19T02:00:09.757Z,80.09
2023-01-19T02:01:30.962Z,80.23
2023-01-19T02:02:56.042Z,80.69
2023-01-19T02:03:59.871Z,81.21
2023-01-19T02:05:08.773Z,81.73
2023-01-19T02:06:12.629Z,81.92
2023-01-19T02:07:39.350Z,81.48
2023-01-19T02:09:12.624Z,81.15
2023-01-19T02:10:34.260Z,81.19
2023-01-19T02:11:56.475Z,81.17
2023-01-19T02:13:17.532Z,80.17
2023-01-19T02:14:20.275Z,80.38
2023-01-19T02:15:23.172Z,80.84
2023-01-19T02:16:26.140Z,81.35
2023-01-19T02:17:28.982Z,80.84
2023-01-19T02:18:32.983Z,80.86
2023-01-19T02:19:43.021Z,81.11
2023-01-19T02:20:59.077Z,81.52
2023-01-19T02:22:12.465Z,81.30
2023-01-19T02:23:21.944Z,81.60
2023-01-19T02:24:25.479Z,80.72
2023-01-19T02:25:28.197Z,80.41
2023-01-19T02:26:32.925Z,80.37
2023-01-19T02:27:35.965Z,80.59
2023-01-19T02:28:44.972Z,80.67
2023-01-19T02:29:47.955Z,80.69
2023-01-19T02:30:50.741Z,80.83
2023-01-19T02:31:55.032Z,80.76
2023-01-19T02:32:57.766Z,80.02
2023-01-19T02:34:22.629Z,79.56
2023-01-19T02:35:26.722Z,79.37
2023-01-19T02:36:36.811Z,79.73
2023-01-19T02:37:41.538Z,80.00
2023-01-19T02:38:46.931Z,79.83
2023-01-19T02:40:03.741Z,79.98
2023-01-19T02:41:08.775Z,80.21
2023-01-19T02:42:18.807Z,80.36
2023-01-19T02:43:21.625Z,80.78
2023-01-19T02:44:30.251Z,80.46
2023-01-19T02:45:33.159Z,80.47
2023-01-19T02:46:36.345Z,80.49
2023-01-19T02:47:41.128Z,80.74
2023-01-19T02:48:43.836Z,80.70
2023-01-19T02:50:27.010Z,80.52
2023-01-19T02:51:33.336Z,80.23
2023-01-19T02:52:36.040Z,80.46
2023-01-19T02:54:00.537Z,80.46
2023-01-19T02:55:14.384Z,80.36
2023-01-19T02:56:54.201Z,80.43
2023-01-19T02:58:04.269Z,80.52
2023-01-19T02:59:12.602Z,80.50
2023-01-19T03:00:23.951Z,80.51
2023-01-19T03:01:57.028Z,80.23
2023-01-19T03:03:31.737Z,80.37
2023-01-19T03:05:05.153Z,80.41
2023-01-19T03:06:39.490Z,80.27
2023-01-19T03:07:48.101Z,80.23
2023-01-19T03:09:39.540Z,80.11
2023-01-19T03:10:52.208Z,79.92
2023-01-19T03:12:42.225Z,79.62
2023-01-19T03:14:16.844Z,79.77
2023-01-19T03:15:55.373Z,80.15
2023-01-19T03:17:03.648Z,80.07
2023-01-19T03:18:10.656Z,79.65
2023-01-19T03:19:25.798Z,79.67
2023-01-19T03:20:29.974Z,79.76
2023-01-19T03:21:36.922Z,80.02
2023-01-19T03:22:40.530Z,80.29
2023-01-19T03:23:46.606Z,79.54
2023-01-19T03:24:54.666Z,79.87
2023-01-19T03:25:59.006Z,80.18
2023-01-19T03:27:09.165Z,80.20
2023-01-19T03:28:15.232Z,80.31
2023-01-19T03:29:20.795Z,80.28
2023-01-19T03:30:28.328Z,80.24
2023-01-19T03:31:34.270Z,80.10
2023-01-19T03:32:42.239Z,80.05
2023-01-19T03:33:56.437Z,80.14
2023-01-19T03:35:06.342Z,79.99
2023-01-19T03:36:21.116Z,80.09
2023-01-19T03:37:25.200Z,80.13
2023-01-19T03:38:29.265Z,80.07
2023-01-19T03:39:32.640Z,79.99
2023-01-19T03:40:37.563Z,80.20
2023-01-19T03:41:42.540Z,80.07
2023-01-19T03:42:46.406Z,80.09
2023-01-19T03:43:51.427Z,80.26
2023-01-19T03:44:57.639Z,80.12
2023-01-19T03:46:06.232Z,79.98
2023-01-19T03:47:12.064Z,80.11
2023-01-19T03:48:14.910Z,80.22
2023-01-19T03:49:17.891Z,80.30
2023-01-19T03:50:31.329Z,80.37
2023-01-19T03:51:37.493Z,80.73
2023-01-19T03:52:40.312Z,80.92
2023-01-19T03:53:44.128Z,80.94
2023-01-19T03:54:47.300Z,81.09
2023-01-19T03:55:55.290Z,81.23
2023-01-19T03:56:57.935Z,81.43
2023-01-19T03:58:01.262Z,81.25
2023-01-19T03:59:06.493Z,81.13
2023-01-19T04:00:09.794Z,81.43
2023-01-19T04:01:13.688Z,81.02
2023-01-19T04:02:32.886Z,80.93
2023-01-19T04:03:36.113Z,81.00
2023-01-19T04:04:42.766Z,81.11
2023-01-19T04:05:46.021Z,81.12
2023-01-19T04:06:48.752Z,81.08
2023-01-19T04:07:52.454Z,80.84
2023-01-19T04:08:55.674Z,80.90
2023-01-19T04:09:58.379Z,80.87
2023-01-19T04:11:04.133Z,80.71
2023-01-19T04:12:07.162Z,80.70
2023-01-19T04:13:10.140Z,80.85
2023-01-19T04:14:13.016Z,80.78
2023-01-19T04:15:16.646Z,80.92
2023-01-19T04:16:21.831Z,80.64
2023-01-19T04:17:24.503Z,80.85
2023-01-19T04:18:27.273Z,80.85
2023-01-19T04:19:29.935Z,80.71
2023-01-19T04:20:32.593Z,80.27
2023-01-19T04:21:36.315Z,80.72
2023-01-19T04:22:40.270Z,81.16
2023-01-19T04:23:43.378Z,81.27
2023-01-19T04:24:52.988Z,80.79
2023-01-19T04:26:04.307Z,80.50
2023-01-19T04:27:06.978Z,80.39
2023-01-19T04:28:09.622Z,80.34
2023-01-19T04:29:12.268Z,80.57
2023-01-19T04:30:15.380Z,80.82
2023-01-19T04:31:18.630Z,81.10
2023-01-19T04:32:21.411Z,81.11
2023-01-19T04:33:24.533Z,80.89
2023-01-19T04:34:27.693Z,81.10
2023-01-19T04:35:30.371Z,81.37
2023-01-19T04:36:33.036Z,81.05
2023-01-19T04:37:35.972Z,81.03
2023-01-19T04:38:38.662Z,81.50
2023-01-19T04:39:41.314Z,81.39
2023-01-19T04:40:44.229Z,81.50
2023-01-19T04:41:46.920Z,81.13
2023-01-19T04:42:49.563Z,81.34
2023-01-19T04:43:52.368Z,81.94
2023-01-19T04:44:55.081Z,81.53
2023-01-19T04:45:58.536Z,81.88
2023-01-19T04:47:01.331Z,81.75
2023-01-19T04:48:07.511Z,81.84
2023-01-19T04:49:10.994Z,82.04
2023-01-19T04:50:13.784Z,81.66
2023-01-19T04:51:16.511Z,81.52
2023-01-19T04:52:20.454Z,81.81
2023-01-19T04:53:23.301Z,81.88
2023-01-19T04:54:26.508Z,81.93
2023-01-19T04:55:49.212Z,81.69
2023-01-19T04:56:52.086Z,81.56
2023-01-19T04:57:55.606Z,82.13
2023-01-19T04:58:58.858Z,82.29
2023-01-19T05:00:01.645Z,82.41
2023-01-19T05:01:09.074Z,82.46
2023-01-19T05:02:20.584Z,82.42
2023-01-19T05:03:24.932Z,82.43
2023-01-19T05:04:28.559Z,82.15
2023-01-19T05:05:31.743Z,81.92
2023-01-19T05:06:35.569Z,82.07
2023-01-19T05:07:38.690Z,82.17
2023-01-19T05:08:41.709Z,81.91
2023-01-19T05:09:52.682Z,82.02
2023-01-19T05:11:00.717Z,81.96
2023-01-19T05:12:03.501Z,81.97
2023-01-19T05:13:06.698Z,82.13
2023-01-19T05:14:10.379Z,81.87
2023-01-19T05:15:13.254Z,82.23
2023-01-19T05:16:19.082Z,82.23
2023-01-19T05:17:28.306Z,82.27
2023-01-19T05:18:41.446Z,82.27
2023-01-19T05:19:44.161Z,82.41
2023-01-19T05:20:47.149Z,81.96
2023-01-19T05:21:50.213Z,82.14
2023-01-19T05:22:54.459Z,82.26
2023-01-19T05:23:57.272Z,82.02
2023-01-19T05:24:59.960Z,82.07
2023-01-19T05:26:03.961Z,81.82
2023-01-19T05:27:06.934Z,81.72
2023-01-19T05:28:09.746Z,81.87
2023-01-19T05:29:15.509Z,81.74
2023-01-19T05:30:18.804Z,81.60
2023-01-19T05:31:21.622Z,81.60
2023-01-19T05:32:24.466Z,81.94
2023-01-19T05:33:27.339Z,81.51
2023-01-19T05:34:30.318Z,81.70
2023-01-19T05:35:36.304Z,81.81
2023-01-19T05:36:39.337Z,81.42
2023-01-19T05:37:42.130Z,81.63
2023-01-19T05:38:44.862Z,81.83
2023-01-19T05:39:47.558Z,81.68
2023-01-19T05:40:50.354Z,81.63
2023-01-19T05:41:56.201Z,81.80
2023-01-19T05:43:02.710Z,81.86
2023-01-19T05:44:05.822Z,82.04
2023-01-19T05:45:09.431Z,81.86
2023-01-19T05:46:12.825Z,82.11
2023-01-19T05:47:16.006Z,82.05
2023-01-19T05:48:18.907Z,81.85
2023-01-19T05:49:21.707Z,81.74
2023-01-19T05:50:24.498Z,82.06
2023-01-19T05:51:27.201Z,81.87
2023-01-19T05:52:29.938Z,82.00
2023-01-19T05:53:35.297Z,82.00
2023-01-19T05:54:38.244Z,82.10
2023-01-19T05:55:41.207Z,82.12
2023-01-19T05:56:51.716Z,82.36
2023-01-19T05:58:01.290Z,82.38
2023-01-19T05:59:04.010Z,82.51
2023-01-19T06:00:07.334Z,82.39
2023-01-19T06:01:11.609Z,82.51
2023-01-19T06:02:17.588Z,82.60
2023-01-19T06:03:20.381Z,82.41
2023-01-19T06:04:23.346Z,82.35
2023-01-19T06:05:26.511Z,82.54
2023-01-19T06:06:32.067Z,82.64
2023-01-19T06:07:34.793Z,82.51
2023-01-19T06:08:37.596Z,82.46
2023-01-19T06:09:40.308Z,82.69
2023-01-19T06:10:42.949Z,82.71
2023-01-19T06:11:46.505Z,82.74
2023-01-19T06:12:50.202Z,82.79
2023-01-19T06:14:06.297Z,82.91
2023-01-19T06:15:09.394Z,83.07
2023-01-19T06:16:32.097Z,83.04
2023-01-19T06:17:34.939Z,83.19
2023-01-19T06:18:39.035Z,83.15
2023-01-19T06:19:41.924Z,82.91
2023-01-19T06:20:44.581Z,83.12
2023-01-19T06:21:50.820Z,83.08
2023-01-19T06:22:59.736Z,82.97
2023-01-19T06:24:02.580Z,82.89
2023-01-19T06:25:05.387Z,82.89
2023-01-19T06:26:08.232Z,82.78
2023-01-19T06:27:12.262Z,82.75
2023-01-19T06:28:14.892Z,83.02
2023-01-19T06:29:17.678Z,83.39
2023-01-19T06:30:25.995Z,83.46
2023-01-19T06:31:28.690Z,83.10
2023-01-19T06:32:32.027Z,83.31
2023-01-19T06:33:37.764Z,83.23
2023-01-19T06:34:44.666Z,83.11
2023-01-19T06:35:50.739Z,83.09
2023-01-19T06:36:53.391Z,83.02
2023-01-19T06:37:56.684Z,83.00
2023-01-19T06:38:59.381Z,83.03
2023-01-19T06:40:02.694Z,83.07
2023-01-19T06:41:05.953Z,83.14
2023-01-19T06:42:09.607Z,82.99
2023-01-19T06:43:12.695Z,83.01
2023-01-19T06:44:15.422Z,82.69
2023-01-19T06:45:18.214Z,82.63
2023-01-19T06:46:20.846Z,82.55
2023-01-19T06:47:24.343Z,82.46
2023-01-19T06:48:27.256Z,82.51
2023-01-19T06:49:29.875Z,82.79
2023-01-19T06:50:33.870Z,82.89
2023-01-19T06:51:36.848Z,83.07
2023-01-19T06:52:45.204Z,83.05
2023-01-19T06:53:47.868Z,83.03
2023-01-19T06:54:50.771Z,83.28
2023-01-19T06:55:53.407Z,83.38
2023-01-19T06:56:56.372Z,83.46
2023-01-19T06:58:00.254Z,83.59
2023-01-19T06:59:03.182Z,83.79
2023-01-19T07:00:09.188Z,83.83
2023-01-19T07:01:12.181Z,83.56
2023-01-19T07:02:26.808Z,83.53
2023-01-19T07:03:31.616Z,83.72
2023-01-19T07:04:35.017Z,84.18
2023-01-19T07:05:42.684Z,84.25
2023-01-19T07:06:48.215Z,84.28
2023-01-19T07:07:57.770Z,84.30
2023-01-19T07:09:19.454Z,84.26
2023-01-19T07:11:24.891Z,84.26
2023-01-19T07:11:56.024Z,84.17
2023-01-19T07:13:02.343Z,84.24
2023-01-19T07:14:05.971Z,84.18
2023-01-19T07:15:10.507Z,84.13
2023-01-19T07:16:14.178Z,84.48
2023-01-19T07:17:17.011Z,84.44
2023-01-19T07:18:19.858Z,84.58
2023-01-19T07:19:22.557Z,84.59
2023-01-19T07:20:25.343Z,84.24
2023-01-19T07:21:29.300Z,84.32
2023-01-19T07:22:32.079Z,84.27
2023-01-19T07:23:35.256Z,84.24
2023-01-19T07:24:39.200Z,84.25
2023-01-19T07:25:42.049Z,84.39
2023-01-19T07:26:44.734Z,84.53
2023-01-19T07:27:58.187Z,84.44
2023-01-19T07:29:00.858Z,84.39
2023-01-19T07:30:03.707Z,84.39
2023-01-19T07:31:06.876Z,84.25
2023-01-19T07:32:09.763Z,84.12
2023-01-19T07:33:12.534Z,84.28
2023-01-19T07:34:18.320Z,84.31
2023-01-19T07:35:20.994Z,84.24
2023-01-19T07:36:29.444Z,84.02
2023-01-19T07:37:32.522Z,83.88
2023-01-19T07:38:35.417Z,83.90
2023-01-19T07:39:38.197Z,83.81
2023-01-19T07:40:41.364Z,83.92
2023-01-19T07:41:44.638Z,84.01
2023-01-19T07:43:17.245Z,83.87
2023-01-19T07:44:22.806Z,83.81
2023-01-19T07:45:27.802Z,83.42
2023-01-19T07:46:30.575Z,83.50
2023-01-19T07:47:33.422Z,83.52
2023-01-19T07:48:36.376Z,83.56
2023-01-19T07:49:39.527Z,83.48
2023-01-19T07:50:42.668Z,83.50
2023-01-19T07:51:45.463Z,83.65
2023-01-19T07:52:49.306Z,83.65
2023-01-19T07:53:52.364Z,83.56
2023-01-19T07:54:55.019Z,83.17
2023-01-19T07:55:58.367Z,83.15
2023-01-19T07:57:03.841Z,83.16
2023-01-19T07:58:08.354Z,83.27
2023-01-19T07:59:11.887Z,83.07
2023-01-19T08:00:15.578Z,82.54
2023-01-19T08:01:19.048Z,82.52
2023-01-19T08:02:21.899Z,82.58
2023-01-19T08:03:24.839Z,82.52
2023-01-19T08:04:28.614Z,82.66
2023-01-19T08:05:32.195Z,82.69
2023-01-19T08:06:38.085Z,82.87
2023-01-19T08:07:40.817Z,82.87
2023-01-19T08:08:43.448Z,82.64
2023-01-19T08:09:46.100Z,83.02
2023-01-19T08:10:51.640Z,83.16
2023-01-19T08:11:54.540Z,83.16
2023-01-19T08:12:59.069Z,83.13
2023-01-19T08:14:02.082Z,83.24
2023-01-19T08:15:05.022Z,83.03
2023-01-19T08:16:07.988Z,83.00
2023-01-19T08:17:13.980Z,82.87
2023-01-19T08:18:16.788Z,82.74
2023-01-19T08:19:20.415Z,82.42
2023-01-19T08:20:24.404Z,82.60
2023-01-19T08:21:28.351Z,82.51
2023-01-19T08:22:31.096Z,82.82
2023-01-19T08:23:33.742Z,82.89
2023-01-19T08:24:36.412Z,82.97
2023-01-19T08:25:40.276Z,82.75
2023-01-19T08:26:43.021Z,83.00
2023-01-19T08:27:46.124Z,83.27
2023-01-19T08:28:49.050Z,83.19
2023-01-19T08:29:51.717Z,82.78
2023-01-19T08:30:57.972Z,82.54
2023-01-19T08:32:03.282Z,82.89
2023-01-19T08:33:09.247Z,82.36
2023-01-19T08:34:12.015Z,82.48
2023-01-19T08:35:14.702Z,82.67
2023-01-19T08:36:18.036Z,82.56
2023-01-19T08:37:20.685Z,81.86
2023-01-19T08:38:24.005Z,81.90
2023-01-19T08:39:27.053Z,82.03
2023-01-19T08:40:31.071Z,81.90
2023-01-19T08:41:33.804Z,82.24
2023-01-19T08:42:36.448Z,82.26
2023-01-19T08:43:39.596Z,82.23
2023-01-19T08:44:57.224Z,82.35
2023-01-19T08:46:00.691Z,82.25
2023-01-19T08:47:03.436Z,82.17
2023-01-19T08:48:07.442Z,82.69
2023-01-19T08:49:10.433Z,82.48
2023-01-19T08:50:13.236Z,82.00
2023-01-19T08:51:16.751Z,82.15
2023-01-19T08:52:19.441Z,82.33
2023-01-19T08:53:24.618Z,82.42
2023-01-19T08:54:27.295Z,82.07
2023-01-19T08:55:30.992Z,82.40
2023-01-19T08:56:33.630Z,82.48
2023-01-19T08:57:36.297Z,82.44
2023-01-19T08:58:40.386Z,82.10
2023-01-19T08:59:43.053Z,82.36
2023-01-19T09:00:45.772Z,82.38
2023-01-19T09:01:48.568Z,82.66
2023-01-19T09:02:51.373Z,81.99
2023-01-19T09:03:54.547Z,82.21
2023-01-19T09:04:57.232Z,82.25
2023-01-19T09:05:59.964Z,81.86
2023-01-19T09:07:02.604Z,82.02
2023-01-19T09:08:10.647Z,82.56
2023-01-19T09:09:13.343Z,82.59
2023-01-19T09:10:17.336Z,82.64
2023-01-19T09:11:20.917Z,82.49
2023-01-19T09:12:23.755Z,82.38
2023-01-19T09:13:26.515Z,82.07
2023-01-19T09:14:29.155Z,82.04
2023-01-19T09:15:35.053Z,82.38
2023-01-19T09:16:37.805Z,82.46
2023-01-19T09:17:42.469Z,82.37
2023-01-19T09:18:46.995Z,82.34
2023-01-19T09:19:49.674Z,82.15
2023-01-19T09:20:52.394Z,81.77
2023-01-19T09:21:55.953Z,81.99
2023-01-19T09:22:59.584Z,82.20
2023-01-19T09:24:02.281Z,82.31
2023-01-19T09:25:05.128Z,82.33
2023-01-19T09:26:08.092Z,82.23
2023-01-19T09:27:10.796Z,82.19
2023-01-19T09:28:16.416Z,82.14
2023-01-19T09:29:19.119Z,82.11
2023-01-19T09:30:21.815Z,82.10
2023-01-19T09:31:24.777Z,82.13
2023-01-19T09:32:27.467Z,81.96
2023-01-19T09:33:30.523Z,81.95
2023-01-19T09:34:35.979Z,81.62
2023-01-19T09:35:40.280Z,81.55
2023-01-19T09:36:42.987Z,81.52
2023-01-19T09:37:49.191Z,81.56
2023-01-19T09:38:51.847Z,81.52
2023-01-19T09:39:54.595Z,81.22
2023-01-19T09:40:58.343Z,81.12
2023-01-19T09:42:09.385Z,81.32
2023-01-19T09:43:21.802Z,81.29
2023-01-19T09:44:36.619Z,81.68
2023-01-19T09:46:03.809Z,81.91
2023-01-19T09:47:16.004Z,81.80
2023-01-19T09:48:27.296Z,82.09
2023-01-19T09:49:37.764Z,82.15
2023-01-19T09:50:47.747Z,81.91
2023-01-19T09:51:52.276Z,81.98
2023-01-19T09:53:08.474Z,82.01
2023-01-19T09:54:20.298Z,82.22
2023-01-19T09:55:27.296Z,82.29
2023-01-19T09:56:31.790Z,82.22
2023-01-19T09:57:35.974Z,83.62
2023-01-19T09:58:39.220Z,82.23
2023-01-19T09:59:44.874Z,81.84
2023-01-19T10:00:57.023Z,81.75
2023-01-19T10:02:26.859Z,81.47
2023-01-19T10:03:30.212Z,81.65
2023-01-19T10:04:38.899Z,81.72
2023-01-19T10:09:43.764Z,81.15
2023-01-19T10:10:54.533Z,81.28
2023-01-19T10:12:05.734Z,81.32
2023-01-19T10:13:32.607Z,81.55
2023-01-19T10:14:44.201Z,81.88
2023-01-19T10:16:06.104Z,82.32
2023-01-19T10:17:21.279Z,82.07
2023-01-19T10:18:37.602Z,81.96
2023-01-19T10:19:48.601Z,82.09
2023-01-19T10:20:57.054Z,81.96
2023-01-19T10:22:04.820Z,81.82
2023-01-19T10:23:26.105Z,82.04
2023-01-19T10:24:39.647Z,81.99
2023-01-19T10:25:43.098Z,81.76
2023-01-19T10:26:53.410Z,81.55
2023-01-19T10:27:56.157Z,81.73
2023-01-19T10:29:04.134Z,81.81
2023-01-19T10:30:09.525Z,81.83
2023-01-19T10:31:13.675Z,81.62
2023-01-19T10:32:18.391Z,81.61
2023-01-19T10:33:21.103Z,81.59
2023-01-19T10:34:26.596Z,81.44
2023-01-19T10:35:31.044Z,81.57
2023-01-19T10:36:39.436Z,81.61
2023-01-19T10:37:43.183Z,81.73
2023-01-19T10:38:46.862Z,81.64
2023-01-19T10:40:18.276Z,81.38
2023-01-19T10:41:28.307Z,81.61
2023-01-19T10:42:31.969Z,81.46
2023-01-19T10:43:44.319Z,81.22
2023-01-19T10:44:47.192Z,81.02
2023-01-19T10:45:51.671Z,81.10
2023-01-19T10:46:56.404Z,81.13
2023-01-19T10:48:06.330Z,81.41
2023-01-19T10:49:27.601Z,81.16
2023-01-19T10:50:31.843Z,81.15
2023-01-19T10:51:34.716Z,81.13
2023-01-19T10:52:40.772Z,81.32
2023-01-19T10:53:56.926Z,81.32
2023-01-19T10:55:02.568Z,81.50
2023-01-19T10:56:38.321Z,81.51
2023-01-19T10:57:44.449Z,81.45
2023-01-19T10:58:47.191Z,81.24
2023-01-19T10:59:51.938Z,81.45
2023-01-19T11:00:56.330Z,81.25
2023-01-19T11:02:28.846Z,81.29
2023-01-19T11:03:33.315Z,81.59
2023-01-19T11:04:36.038Z,81.43
2023-01-19T11:05:38.800Z,81.50
2023-01-19T11:06:41.461Z,81.66
2023-01-19T11:07:44.126Z,81.77
2023-01-19T11:08:48.488Z,81.55
2023-01-19T11:10:11.637Z,81.68
2023-01-19T11:11:17.627Z,81.35
2023-01-19T11:12:25.096Z,81.75
2023-01-19T11:13:27.848Z,81.85
2023-01-19T11:14:32.334Z,82.08
2023-01-19T11:15:42.581Z,81.93
2023-01-19T11:16:54.198Z,81.82
2023-01-19T11:17:57.407Z,81.81
2023-01-19T11:19:03.162Z,81.71
2023-01-19T11:20:06.464Z,81.72
2023-01-19T11:21:11.707Z,81.74
2023-01-19T11:22:30.556Z,81.81
2023-01-19T11:23:44.068Z,81.80
2023-01-19T11:24:46.914Z,82.14
2023-01-19T11:25:51.387Z,82.03
2023-01-19T11:27:04.059Z,82.36
2023-01-19T11:28:06.890Z,82.21
2023-01-19T11:29:24.867Z,82.28
2023-01-19T11:30:28.335Z,82.28
2023-01-19T11:31:33.394Z,82.24
2023-01-19T11:32:38.097Z,82.06
2023-01-19T11:33:50.720Z,82.21
2023-01-19T11:34:53.773Z,82.36
2023-01-19T11:36:04.637Z,82.34
2023-01-19T11:37:19.614Z,82.22
2023-01-19T11:38:28.237Z,82.17
2023-01-19T11:39:33.615Z,82.38
2023-01-19T11:40:37.628Z,82.43
2023-01-19T11:41:41.564Z,82.37
2023-01-19T11:42:45.719Z,82.52
2023-01-19T11:43:52.799Z,82.56
2023-01-19T11:44:59.619Z,82.61
2023-01-19T11:46:02.995Z,82.62
2023-01-19T11:47:17.108Z,82.51
2023-01-19T11:48:37.081Z,82.21
2023-01-19T11:50:07.775Z,81.95
2023-01-19T11:51:17.062Z,82.29
2023-01-19T11:52:32.389Z,82.40
2023-01-19T11:53:39.596Z,82.38
2023-01-19T11:55:06.750Z,82.05
2023-01-19T11:56:15.071Z,82.39
2023-01-19T11:57:18.276Z,82.04
2023-01-19T11:58:21.909Z,82.29
2023-01-19T11:59:28.856Z,82.45
2023-01-19T12:00:45.655Z,81.66
2023-01-19T12:01:55.913Z,81.89
2023-01-19T12:03:45.337Z,81.91
2023-01-19T12:04:50.404Z,81.93
2023-01-19T12:05:58.291Z,81.95
2023-01-19T12:07:09.968Z,82.02
2023-01-19T12:08:23.750Z,82.18
2023-01-19T12:09:31.185Z,82.27
2023-01-19T12:10:39.671Z,82.28
2023-01-19T12:11:47.486Z,82.04
2023-01-19T12:12:55.274Z,81.93
2023-01-19T12:14:01.242Z,82.15
2023-01-19T12:15:22.287Z,82.12
2023-01-19T12:16:36.574Z,82.33
2023-01-19T12:17:51.627Z,82.20
2023-01-19T12:19:13.295Z,82.17
2023-01-19T12:20:21.645Z,82.23
2023-01-19T12:21:24.425Z,82.33
2023-01-19T12:22:30.263Z,82.35
2023-01-19T12:23:49.550Z,82.40
2023-01-19T12:25:03.453Z,82.35
2023-01-19T12:26:34.275Z,82.27
2023-01-19T12:27:45.119Z,82.05
2023-01-19T12:28:50.497Z,82.20
2023-01-19T12:29:55.822Z,82.27
2023-01-19T12:31:03.745Z,82.49
2023-01-19T12:32:18.675Z,82.53
2023-01-19T12:33:27.470Z,82.36
2023-01-19T12:34:37.096Z,82.06
2023-01-19T12:35:54.874Z,82.00
2023-01-19T12:37:03.199Z,81.92
2023-01-19T12:38:34.631Z,82.01
2023-01-19T12:39:49.525Z,82.00
2023-01-19T12:41:06.665Z,81.94
2023-01-19T12:42:21.154Z,81.73
2023-01-19T12:43:24.643Z,81.54
2023-01-19T12:44:31.552Z,81.82
2023-01-19T12:45:40.856Z,81.80
2023-01-19T12:47:05.043Z,82.07
2023-01-19T12:48:25.492Z,82.33
2023-01-19T12:49:39.095Z,82.35
2023-01-19T12:50:47.414Z,82.29
2023-01-19T12:51:51.733Z,82.49
2023-01-19T12:53:00.529Z,82.55
2023-01-19T12:54:09.203Z,82.51
2023-01-19T12:55:14.592Z,82.90
2023-01-19T12:56:18.898Z,83.03
2023-01-19T12:57:26.183Z,83.08
2023-01-19T12:58:29.402Z,82.98
2023-01-19T12:59:34.478Z,83.21
2023-01-19T13:00:43.837Z,83.45
2023-01-19T13:02:21.470Z,83.47
2023-01-19T13:03:27.689Z,83.45
2023-01-19T13:04:33.301Z,83.50
2023-01-19T13:05:41.933Z,83.60
2023-01-19T13:06:50.650Z,83.63
2023-01-19T13:08:02.698Z,83.35
2023-01-19T13:09:25.331Z,83.68
2023-01-19T13:10:57.566Z,83.73
2023-01-19T13:12:15.276Z,83.92
2023-01-19T13:13:20.666Z,83.69
2023-01-19T13:14:37.419Z,83.39
2023-01-19T13:15:40.368Z,83.44
2023-01-19T13:16:42.962Z,83.20
2023-01-19T13:17:53.930Z,83.27
2023-01-19T13:19:14.497Z,83.19
2023-01-19T13:20:37.668Z,83.31
2023-01-19T13:21:46.361Z,83.55
2023-01-19T13:22:51.634Z,83.75
2023-01-19T13:24:00.053Z,83.61
2023-01-19T13:25:14.024Z,83.24
2023-01-19T13:26:42.810Z,83.51
2023-01-19T13:27:45.651Z,83.42
2023-01-19T13:28:55.975Z,83.24
2023-01-19T13:29:59.022Z,83.36
2023-01-19T13:31:06.748Z,83.43
2023-01-19T13:32:19.824Z,83.47
2023-01-19T13:33:26.387Z,83.46
2023-01-19T13:34:40.253Z,83.45
2023-01-19T13:35:52.336Z,83.42
2023-01-19T13:36:57.616Z,83.38
2023-01-19T13:38:02.815Z,83.45
2023-01-19T13:39:08.788Z,83.55
2023-01-19T13:40:23.063Z,83.35
2023-01-19T13:41:30.647Z,83.25
2023-01-19T13:42:42.711Z,83.33
2023-01-19T13:43:47.319Z,83.53
2023-01-19T13:44:54.873Z,83.80
2023-01-19T13:45:57.965Z,83.39
2023-01-19T13:47:04.313Z,83.13
2023-01-19T13:48:13.910Z,83.18
2023-01-19T13:49:40.919Z,83.38
2023-01-19T13:50:45.704Z,82.91
2023-01-19T13:52:24.704Z,82.81
2023-01-19T13:53:27.830Z,82.78
2023-01-19T13:54:30.752Z,82.85
2023-01-19T13:55:33.541Z,82.93
2023-01-19T13:56:36.178Z,82.93
2023-01-19T13:57:48.957Z,83.08
2023-01-19T13:59:14.098Z,82.79
2023-01-19T14:00:24.291Z,82.66
2023-01-19T14:01:29.558Z,82.57
2023-01-19T14:02:33.471Z,82.46
2023-01-19T14:03:36.259Z,82.49
2023-01-19T14:04:39.036Z,82.40
2023-01-19T14:05:44.476Z,82.50
2023-01-19T14:06:49.779Z,82.64
2023-01-19T14:08:05.791Z,82.59
2023-01-19T14:09:24.267Z,82.55
2023-01-19T14:10:27.020Z,82.36
2023-01-19T14:11:29.729Z,82.66
2023-01-19T14:12:33.494Z,82.75
2023-01-19T14:13:41.239Z,82.79
2023-01-19T14:14:47.798Z,82.78
2023-01-19T14:15:52.610Z,82.68
2023-01-19T14:16:56.792Z,82.44
2023-01-19T14:18:10.640Z,82.27
2023-01-19T14:19:13.337Z,82.46
2023-01-19T14:20:31.804Z,82.70
2023-01-19T14:21:47.219Z,82.47
2023-01-19T14:22:51.510Z,82.49
2023-01-19T14:24:09.201Z,82.14
2023-01-19T14:25:32.480Z,82.21
2023-01-19T14:26:55.783Z,82.27
2023-01-19T14:28:30.500Z,82.50
2023-01-19T14:29:35.902Z,82.54
2023-01-19T14:30:38.668Z,82.32